sensor_id;sensor_type;location;lat;lon;timestamp;P1;durP1;ratioP1;P2;durP2;ratioP2
76393;SDS011;65216;51.090;-115.352;2023-03-01T00:01:44;12.00;;;2.70;;
76393;SDS011;65216;51.090;-115.352;2023-03-01T00:04:11;19.60;;;3.20;;
76393;SDS011;65216;51.090;-115.352;2023-03-01T00:06:44;14.30;;;2.80;;
76393;SDS011;65216;51.090;-115.352;2023-03-01T00:09:16;14.60;;;2.70;;
76393;SDS011;65216;51.090;-115.352;2023-03-01T00:11:43;13.20;;;2.70;;
76393;SDS011;65216;51.090;-115.352;2023-03-01T00:14:14;15.10;;;2.70;;
76393;SDS011;65216;51.090;-115.352;2023-03-01T00:16:46;15.50;;;2.60;;
76393;SDS011;65216;51.090;-115.352;2023-03-01T00:19:20;18.30;;;2.90;;
76393;SDS011;65216;51.090;-115.352;2023-03-01T00:21:48;11.00;;;2.70;;
76393;SDS011;65216;51.090;-115.352;2023-03-01T00:24:18;15.30;;;3.30;;
76393;SDS011;65216;51.090;-115.352;2023-03-01T00:26:52;16.60;;;3.50;;
76393;SDS011;65216;51.090;-115.352;2023-03-01T00:29:24;15.30;;;2.70;;
76393;SDS011;65216;51.090;-115.352;2023-03-01T00:31:51;13.60;;;3.20;;
76393;SDS011;65216;51.090;-115.352;2023-03-01T00:34:18;14.40;;;3.00;;
76393;SDS011;65216;51.090;-115.352;2023-03-01T00:36:46;16.20;;;2.90;;
76393;SDS011;65216;51.090;-115.352;2023-03-01T00:39:14;22.20;;;3.90;;
76393;SDS011;65216;51.090;-115.352;2023-03-01T00:41:42;15.00;;;2.90;;
76393;SDS011;65216;51.090;-115.352;2023-03-01T00:44:10;12.70;;;3.00;;
76393;SDS011;65216;51.090;-115.352;2023-03-01T00:46:38;18.50;;;3.90;;
76393;SDS011;65216;51.090;-115.352;2023-03-01T00:49:06;13.20;;;2.80;;
76393;SDS011;65216;51.090;-115.352;2023-03-01T00:51:33;12.00;;;2.80;;
76393;SDS011;65216;51.090;-115.352;2023-03-01T00:54:05;14.40;;;3.10;;
76393;SDS011;65216;51.090;-115.352;2023-03-01T00:56:32;14.00;;;3.00;;
76393;SDS011;65216;51.090;-115.352;2023-03-01T00:59:00;15.50;;;3.00;;
76393;SDS011;65216;51.090;-115.352;2023-03-01T01:01:31;20.00;;;3.50;;
76393;SDS011;65216;51.090;-115.352;2023-03-01T01:04:04;22.80;;;3.60;;
76393;SDS011;65216;51.090;-115.352;2023-03-01T01:06:36;16.10;;;3.40;;
76393;SDS011;65216;51.090;-115.352;2023-03-01T01:09:16;21.20;;;3.70;;
76393;SDS011;65216;51.090;-115.352;2023-03-01T01:11:49;16.70;;;3.10;;
76393;SDS011;65216;51.090;-115.352;2023-03-01T01:14:19;25.70;;;3.40;;
76393;SDS011;65216;51.090;-115.352;2023-03-01T01:16:47;21.00;;;3.00;;
76393;SDS011;65216;51.090;-115.352;2023-03-01T01:19:16;17.20;;;3.10;;
76393;SDS011;65216;51.090;-115.352;2023-03-01T01:21:43;20.20;;;3.50;;
76393;SDS011;65216;51.090;-115.352;2023-03-01T01:24:15;16.10;;;3.20;;
76393;SDS011;65216;51.090;-115.352;2023-03-01T01:26:45;24.70;;;3.90;;
76393;SDS011;65216;51.090;-115.352;2023-03-01T01:29:13;26.90;;;4.30;;
76393;SDS011;65216;51.090;-115.352;2023-03-01T01:31:43;21.70;;;3.70;;
76393;SDS011;65216;51.090;-115.352;2023-03-01T01:34:15;26.20;;;4.10;;
76393;SDS011;65216;51.090;-115.352;2023-03-01T01:36:47;21.10;;;3.60;;
76393;SDS011;65216;51.090;-115.352;2023-03-01T01:39:20;28.40;;;4.70;;
76393;SDS011;65216;51.090;-115.352;2023-03-01T01:41:50;30.00;;;4.60;;
76393;SDS011;65216;51.090;-115.352;2023-03-01T01:47:02;22.40;;;3.90;;
76393;SDS011;65216;51.090;-115.352;2023-03-01T01:49:37;24.30;;;4.80;;
76393;SDS011;65216;51.090;-115.352;2023-03-01T01:55:06;16.80;;;4.00;;
76393;SDS011;65216;51.090;-115.352;2023-03-01T01:57:56;21.20;;;3.90;;
76393;SDS011;65216;51.090;-115.352;2023-03-01T02:00:30;25.40;;;3.80;;
76393;SDS011;65216;51.090;-115.352;2023-03-01T02:03:04;31.10;;;4.70;;
76393;SDS011;65216;51.090;-115.352;2023-03-01T02:05:47;22.70;;;4.40;;
76393;SDS011;65216;51.090;-115.352;2023-03-01T02:08:20;31.60;;;3.90;;
76393;SDS011;65216;51.090;-115.352;2023-03-01T02:10:50;28.00;;;4.40;;
76393;SDS011;65216;51.090;-115.352;2023-03-01T02:13:19;26.20;;;4.20;;
76393;SDS011;65216;51.090;-115.352;2023-03-01T02:15:49;22.90;;;4.30;;
76393;SDS011;65216;51.090;-115.352;2023-03-01T02:18:18;19.20;;;3.90;;
76393;SDS011;65216;51.090;-115.352;2023-03-01T02:23:34;21.60;;;3.70;;
76393;SDS011;65216;51.090;-115.352;2023-03-01T02:26:05;34.00;;;4.60;;
76393;SDS011;65216;51.090;-115.352;2023-03-01T02:28:36;22.20;;;4.20;;
76393;SDS011;65216;51.090;-115.352;2023-03-01T02:31:06;23.10;;;3.90;;
76393;SDS011;65216;51.090;-115.352;2023-03-01T02:33:54;23.50;;;4.40;;
76393;SDS011;65216;51.090;-115.352;2023-03-01T02:36:30;23.40;;;3.80;;
76393;SDS011;65216;51.090;-115.352;2023-03-01T02:39:03;22.50;;;4.00;;
76393;SDS011;65216;51.090;-115.352;2023-03-01T02:41:36;23.50;;;3.70;;
76393;SDS011;65216;51.090;-115.352;2023-03-01T02:44:08;17.90;;;3.90;;
76393;SDS011;65216;51.090;-115.352;2023-03-01T02:46:46;18.40;;;3.70;;
76393;SDS011;65216;51.090;-115.352;2023-03-01T02:49:30;18.50;;;3.80;;
76393;SDS011;65216;51.090;-115.352;2023-03-01T02:55:03;21.70;;;3.80;;
76393;SDS011;65216;51.090;-115.352;2023-03-01T02:57:40;23.90;;;5.20;;
76393;SDS011;65216;51.090;-115.352;2023-03-01T03:00:15;21.10;;;3.60;;
76393;SDS011;65216;51.090;-115.352;2023-03-01T03:02:53;19.70;;;3.40;;
76393;SDS011;65216;51.090;-115.352;2023-03-01T03:05:26;18.70;;;3.90;;
76393;SDS011;65216;51.090;-115.352;2023-03-01T03:07:56;21.20;;;4.60;;
76393;SDS011;65216;51.090;-115.352;2023-03-01T03:10:29;21.60;;;4.60;;
76393;SDS011;65216;51.090;-115.352;2023-03-01T03:13:01;23.10;;;3.70;;
76393;SDS011;65216;51.090;-115.352;2023-03-01T03:15:39;22.60;;;4.30;;
76393;SDS011;65216;51.090;-115.352;2023-03-01T03:18:11;15.70;;;4.00;;
76393;SDS011;65216;51.090;-115.352;2023-03-01T03:20:43;22.20;;;4.20;;
76393;SDS011;65216;51.090;-115.352;2023-03-01T03:23:11;19.40;;;4.30;;
76393;SDS011;65216;51.090;-115.352;2023-03-01T03:25:39;17.80;;;4.10;;
76393;SDS011;65216;51.090;-115.352;2023-03-01T03:28:12;30.90;;;4.30;;
76393;SDS011;65216;51.090;-115.352;2023-03-01T03:30:44;18.10;;;4.20;;
76393;SDS011;65216;51.090;-115.352;2023-03-01T03:33:15;19.10;;;4.30;;
76393;SDS011;65216;51.090;-115.352;2023-03-01T03:35:50;16.60;;;3.80;;
76393;SDS011;65216;51.090;-115.352;2023-03-01T03:38:19;25.70;;;4.30;;
76393;SDS011;65216;51.090;-115.352;2023-03-01T03:40:59;19.20;;;4.40;;
76393;SDS011;65216;51.090;-115.352;2023-03-01T03:43:29;19.10;;;3.80;;
76393;SDS011;65216;51.090;-115.352;2023-03-01T03:46:06;24.20;;;4.70;;
76393;SDS011;65216;51.090;-115.352;2023-03-01T03:48:38;16.50;;;4.20;;
76393;SDS011;65216;51.090;-115.352;2023-03-01T03:51:11;18.40;;;4.00;;
76393;SDS011;65216;51.090;-115.352;2023-03-01T03:53:41;22.20;;;4.70;;
76393;SDS011;65216;51.090;-115.352;2023-03-01T03:56:09;20.90;;;4.70;;
76393;SDS011;65216;51.090;-115.352;2023-03-01T03:58:37;18.20;;;4.00;;
76393;SDS011;65216;51.090;-115.352;2023-03-01T04:01:07;20.80;;;4.50;;
76393;SDS011;65216;51.090;-115.352;2023-03-01T04:03:35;25.00;;;4.60;;
76393;SDS011;65216;51.090;-115.352;2023-03-01T04:06:05;20.50;;;4.70;;
76393;SDS011;65216;51.090;-115.352;2023-03-01T04:08:33;14.10;;;4.00;;
76393;SDS011;65216;51.090;-115.352;2023-03-01T04:11:02;15.20;;;4.00;;
76393;SDS011;65216;51.090;-115.352;2023-03-01T04:13:51;20.80;;;4.00;;
76393;SDS011;65216;51.090;-115.352;2023-03-01T04:16:22;18.50;;;4.50;;
76393;SDS011;65216;51.090;-115.352;2023-03-01T04:18:50;18.30;;;3.90;;
76393;SDS011;65216;51.090;-115.352;2023-03-01T04:21:20;16.60;;;3.80;;
76393;SDS011;65216;51.090;-115.352;2023-03-01T04:23:48;15.70;;;4.30;;
76393;SDS011;65216;51.090;-115.352;2023-03-01T04:26:19;15.70;;;3.80;;
76393;SDS011;65216;51.090;-115.352;2023-03-01T04:28:49;17.30;;;4.20;;
76393;SDS011;65216;51.090;-115.352;2023-03-01T04:31:20;13.10;;;3.70;;
76393;SDS011;65216;51.090;-115.352;2023-03-01T04:33:49;19.10;;;3.80;;
76393;SDS011;65216;51.090;-115.352;2023-03-01T04:36:24;17.70;;;3.60;;
76393;SDS011;65216;51.090;-115.352;2023-03-01T04:38:54;21.60;;;3.80;;
76393;SDS011;65216;51.090;-115.352;2023-03-01T04:41:25;21.20;;;3.90;;
76393;SDS011;65216;51.090;-115.352;2023-03-01T04:43:55;10.20;;;3.50;;
76393;SDS011;65216;51.090;-115.352;2023-03-01T04:46:22;15.70;;;3.80;;
76393;SDS011;65216;51.090;-115.352;2023-03-01T04:48:51;19.30;;;4.10;;
76393;SDS011;65216;51.090;-115.352;2023-03-01T04:51:18;16.00;;;3.70;;
76393;SDS011;65216;51.090;-115.352;2023-03-01T04:53:49;8.20;;;3.60;;
76393;SDS011;65216;51.090;-115.352;2023-03-01T04:56:19;15.60;;;3.90;;
76393;SDS011;65216;51.090;-115.352;2023-03-01T04:58:49;13.30;;;4.00;;
76393;SDS011;65216;51.090;-115.352;2023-03-01T05:01:20;12.30;;;3.60;;
76393;SDS011;65216;51.090;-115.352;2023-03-01T05:03:50;11.60;;;3.30;;
76393;SDS011;65216;51.090;-115.352;2023-03-01T05:06:20;11.70;;;3.10;;
76393;SDS011;65216;51.090;-115.352;2023-03-01T05:08:50;9.00;;;3.20;;
76393;SDS011;65216;51.090;-115.352;2023-03-01T05:11:18;12.60;;;3.50;;
76393;SDS011;65216;51.090;-115.352;2023-03-01T05:13:48;9.80;;;3.30;;
76393;SDS011;65216;51.090;-115.352;2023-03-01T05:16:21;11.40;;;3.80;;
76393;SDS011;65216;51.090;-115.352;2023-03-01T05:18:48;9.60;;;3.30;;
76393;SDS011;65216;51.090;-115.352;2023-03-01T05:21:16;11.70;;;3.30;;
76393;SDS011;65216;51.090;-115.352;2023-03-01T05:23:47;8.20;;;3.10;;
76393;SDS011;65216;51.090;-115.352;2023-03-01T05:26:18;8.00;;;3.20;;
76393;SDS011;65216;51.090;-115.352;2023-03-01T05:28:48;7.50;;;3.30;;
76393;SDS011;65216;51.090;-115.352;2023-03-01T05:31:15;8.80;;;3.30;;
76393;SDS011;65216;51.090;-115.352;2023-03-01T05:33:43;7.60;;;3.10;;
76393;SDS011;65216;51.090;-115.352;2023-03-01T05:36:11;6.90;;;3.00;;
76393;SDS011;65216;51.090;-115.352;2023-03-01T05:38:38;6.80;;;3.30;;
76393;SDS011;65216;51.090;-115.352;2023-03-01T05:41:14;9.00;;;3.30;;
76393;SDS011;65216;51.090;-115.352;2023-03-01T05:43:42;8.10;;;3.50;;
76393;SDS011;65216;51.090;-115.352;2023-03-01T05:46:13;8.00;;;3.70;;
76393;SDS011;65216;51.090;-115.352;2023-03-01T05:48:43;8.20;;;3.60;;
76393;SDS011;65216;51.090;-115.352;2023-03-01T05:51:10;6.60;;;3.80;;
76393;SDS011;65216;51.090;-115.352;2023-03-01T05:53:38;6.40;;;3.40;;
76393;SDS011;65216;51.090;-115.352;2023-03-01T05:56:05;6.60;;;3.50;;
76393;SDS011;65216;51.090;-115.352;2023-03-01T05:58:33;8.40;;;3.70;;
76393;SDS011;65216;51.090;-115.352;2023-03-01T06:01:00;6.60;;;3.20;;
76393;SDS011;65216;51.090;-115.352;2023-03-01T06:03:27;7.80;;;3.40;;
76393;SDS011;65216;51.090;-115.352;2023-03-01T06:06:00;6.50;;;2.90;;
76393;SDS011;65216;51.090;-115.352;2023-03-01T06:08:28;6.40;;;3.30;;
76393;SDS011;65216;51.090;-115.352;2023-03-01T06:10:55;6.00;;;3.30;;
76393;SDS011;65216;51.090;-115.352;2023-03-01T06:13:24;5.60;;;3.00;;
76393;SDS011;65216;51.090;-115.352;2023-03-01T06:15:51;6.70;;;3.80;;
76393;SDS011;65216;51.090;-115.352;2023-03-01T06:18:26;7.20;;;2.90;;
76393;SDS011;65216;51.090;-115.352;2023-03-01T06:20:56;5.70;;;3.30;;
76393;SDS011;65216;51.090;-115.352;2023-03-01T06:23:24;5.60;;;3.20;;
76393;SDS011;65216;51.090;-115.352;2023-03-01T06:25:52;6.30;;;3.30;;
76393;SDS011;65216;51.090;-115.352;2023-03-01T06:28:19;6.40;;;3.00;;
76393;SDS011;65216;51.090;-115.352;2023-03-01T06:30:47;5.20;;;3.20;;
76393;SDS011;65216;51.090;-115.352;2023-03-01T06:33:19;5.70;;;3.10;;
76393;SDS011;65216;51.090;-115.352;2023-03-01T06:35:49;6.70;;;2.90;;
76393;SDS011;65216;51.090;-115.352;2023-03-01T06:38:17;8.30;;;3.80;;
76393;SDS011;65216;51.090;-115.352;2023-03-01T06:40:50;9.90;;;3.40;;
76393;SDS011;65216;51.090;-115.352;2023-03-01T06:43:20;10.00;;;3.50;;
76393;SDS011;65216;51.090;-115.352;2023-03-01T06:45:48;9.10;;;3.60;;
76393;SDS011;65216;51.090;-115.352;2023-03-01T06:48:15;10.10;;;3.50;;
76393;SDS011;65216;51.090;-115.352;2023-03-01T06:50:43;9.60;;;3.50;;
76393;SDS011;65216;51.090;-115.352;2023-03-01T06:53:10;8.90;;;3.50;;
76393;SDS011;65216;51.090;-115.352;2023-03-01T06:55:38;7.50;;;3.30;;
76393;SDS011;65216;51.090;-115.352;2023-03-01T06:58:05;7.00;;;3.00;;
76393;SDS011;65216;51.090;-115.352;2023-03-01T07:00:33;9.10;;;3.40;;
76393;SDS011;65216;51.090;-115.352;2023-03-01T07:03:01;7.70;;;3.30;;
76393;SDS011;65216;51.090;-115.352;2023-03-01T07:05:29;6.40;;;3.50;;
76393;SDS011;65216;51.090;-115.352;2023-03-01T07:07:57;8.90;;;3.40;;
76393;SDS011;65216;51.090;-115.352;2023-03-01T07:10:24;6.20;;;2.90;;
76393;SDS011;65216;51.090;-115.352;2023-03-01T07:12:56;8.90;;;3.30;;
76393;SDS011;65216;51.090;-115.352;2023-03-01T07:15:25;6.20;;;3.10;;
76393;SDS011;65216;51.090;-115.352;2023-03-01T07:17:54;6.60;;;3.00;;
76393;SDS011;65216;51.090;-115.352;2023-03-01T07:20:25;8.90;;;3.30;;
76393;SDS011;65216;51.090;-115.352;2023-03-01T07:22:55;7.20;;;3.30;;
76393;SDS011;65216;51.090;-115.352;2023-03-01T07:25:25;5.80;;;3.00;;
76393;SDS011;65216;51.090;-115.352;2023-03-01T07:27:56;8.30;;;3.10;;
76393;SDS011;65216;51.090;-115.352;2023-03-01T07:30:23;7.10;;;3.10;;
76393;SDS011;65216;51.090;-115.352;2023-03-01T07:32:57;7.50;;;3.20;;
76393;SDS011;65216;51.090;-115.352;2023-03-01T07:35:28;5.60;;;2.90;;
76393;SDS011;65216;51.090;-115.352;2023-03-01T07:37:59;5.00;;;2.80;;
76393;SDS011;65216;51.090;-115.352;2023-03-01T07:40:26;5.60;;;3.10;;
76393;SDS011;65216;51.090;-115.352;2023-03-01T07:42:58;5.60;;;3.20;;
76393;SDS011;65216;51.090;-115.352;2023-03-01T07:45:25;6.40;;;3.20;;
76393;SDS011;65216;51.090;-115.352;2023-03-01T07:47:58;8.20;;;3.30;;
76393;SDS011;65216;51.090;-115.352;2023-03-01T07:50:25;6.70;;;3.40;;
76393;SDS011;65216;51.090;-115.352;2023-03-01T07:52:55;6.70;;;3.10;;
76393;SDS011;65216;51.090;-115.352;2023-03-01T07:55:29;5.30;;;2.90;;
76393;SDS011;65216;51.090;-115.352;2023-03-01T07:57:56;6.20;;;2.90;;
76393;SDS011;65216;51.090;-115.352;2023-03-01T08:00:23;6.70;;;3.20;;
76393;SDS011;65216;51.090;-115.352;2023-03-01T08:02:51;6.50;;;3.20;;
76393;SDS011;65216;51.090;-115.352;2023-03-01T08:05:18;6.50;;;3.00;;
76393;SDS011;65216;51.090;-115.352;2023-03-01T08:07:48;5.20;;;2.90;;
76393;SDS011;65216;51.090;-115.352;2023-03-01T08:10:16;6.80;;;2.90;;
76393;SDS011;65216;51.090;-115.352;2023-03-01T08:12:46;5.30;;;2.90;;
76393;SDS011;65216;51.090;-115.352;2023-03-01T08:15:13;6.50;;;3.00;;
76393;SDS011;65216;51.090;-115.352;2023-03-01T08:17:49;6.10;;;3.00;;
76393;SDS011;65216;51.090;-115.352;2023-03-01T08:20:21;6.10;;;3.00;;
76393;SDS011;65216;51.090;-115.352;2023-03-01T08:22:49;5.30;;;2.90;;
76393;SDS011;65216;51.090;-115.352;2023-03-01T08:25:16;6.50;;;3.30;;
76393;SDS011;65216;51.090;-115.352;2023-03-01T08:27:46;6.00;;;3.20;;
76393;SDS011;65216;51.090;-115.352;2023-03-01T08:30:13;5.60;;;3.40;;
76393;SDS011;65216;51.090;-115.352;2023-03-01T08:32:44;6.30;;;3.20;;
76393;SDS011;65216;51.090;-115.352;2023-03-01T08:35:11;6.70;;;2.90;;
76393;SDS011;65216;51.090;-115.352;2023-03-01T08:37:38;6.40;;;3.00;;
76393;SDS011;65216;51.090;-115.352;2023-03-01T08:40:06;6.70;;;2.90;;
76393;SDS011;65216;51.090;-115.352;2023-03-01T08:42:39;6.60;;;3.00;;
76393;SDS011;65216;51.090;-115.352;2023-03-01T08:45:10;6.30;;;2.90;;
76393;SDS011;65216;51.090;-115.352;2023-03-01T08:47:40;6.50;;;2.90;;
76393;SDS011;65216;51.090;-115.352;2023-03-01T08:50:08;5.50;;;2.90;;
76393;SDS011;65216;51.090;-115.352;2023-03-01T08:52:35;5.80;;;2.90;;
76393;SDS011;65216;51.090;-115.352;2023-03-01T08:55:06;5.80;;;2.90;;
76393;SDS011;65216;51.090;-115.352;2023-03-01T08:57:36;7.00;;;2.90;;
76393;SDS011;65216;51.090;-115.352;2023-03-01T09:00:04;5.80;;;2.80;;
76393;SDS011;65216;51.090;-115.352;2023-03-01T09:09:12;5.50;;;2.90;;
76393;SDS011;65216;51.090;-115.352;2023-03-01T09:11:42;7.00;;;2.80;;
76393;SDS011;65216;51.090;-115.352;2023-03-01T09:14:13;7.30;;;2.80;;
76393;SDS011;65216;51.090;-115.352;2023-03-01T09:16:52;5.00;;;3.10;;
76393;SDS011;65216;51.090;-115.352;2023-03-01T09:19:20;5.40;;;2.70;;
76393;SDS011;65216;51.090;-115.352;2023-03-01T09:21:47;4.60;;;2.60;;
76393;SDS011;65216;51.090;-115.352;2023-03-01T09:24:27;6.50;;;3.00;;
76393;SDS011;65216;51.090;-115.352;2023-03-01T09:26:55;5.60;;;2.80;;
76393;SDS011;65216;51.090;-115.352;2023-03-01T09:29:23;5.20;;;2.60;;
76393;SDS011;65216;51.090;-115.352;2023-03-01T09:31:52;5.50;;;2.90;;
76393;SDS011;65216;51.090;-115.352;2023-03-01T09:34:21;5.10;;;3.00;;
76393;SDS011;65216;51.090;-115.352;2023-03-01T09:36:52;5.30;;;2.70;;
76393;SDS011;65216;51.090;-115.352;2023-03-01T09:39:23;5.50;;;2.70;;
76393;SDS011;65216;51.090;-115.352;2023-03-01T09:41:56;5.50;;;2.30;;
76393;SDS011;65216;51.090;-115.352;2023-03-01T09:44:34;4.80;;;2.50;;
76393;SDS011;65216;51.090;-115.352;2023-03-01T09:47:31;5.40;;;2.90;;
76393;SDS011;65216;51.090;-115.352;2023-03-01T09:50:38;4.20;;;2.60;;
76393;SDS011;65216;51.090;-115.352;2023-03-01T09:53:19;5.50;;;2.70;;
76393;SDS011;65216;51.090;-115.352;2023-03-01T10:04:45;6.10;;;2.90;;
76393;SDS011;65216;51.090;-115.352;2023-03-01T10:07:38;4.80;;;2.50;;
76393;SDS011;65216;51.090;-115.352;2023-03-01T10:10:37;4.40;;;2.60;;
76393;SDS011;65216;51.090;-115.352;2023-03-01T10:13:41;5.20;;;2.70;;
76393;SDS011;65216;51.090;-115.352;2023-03-01T10:22:28;5.30;;;2.60;;
76393;SDS011;65216;51.090;-115.352;2023-03-01T10:24:59;5.10;;;2.90;;
76393;SDS011;65216;51.090;-115.352;2023-03-01T10:28:00;4.80;;;2.60;;
76393;SDS011;65216;51.090;-115.352;2023-03-01T10:30:40;4.70;;;2.60;;
76393;SDS011;65216;51.090;-115.352;2023-03-01T10:33:22;4.70;;;2.60;;
76393;SDS011;65216;51.090;-115.352;2023-03-01T10:35:53;5.70;;;3.00;;
76393;SDS011;65216;51.090;-115.352;2023-03-01T10:38:21;5.40;;;2.80;;
76393;SDS011;65216;51.090;-115.352;2023-03-01T10:40:56;5.10;;;2.50;;
76393;SDS011;65216;51.090;-115.352;2023-03-01T10:43:48;5.60;;;2.80;;
76393;SDS011;65216;51.090;-115.352;2023-03-01T10:46:27;4.30;;;2.30;;
76393;SDS011;65216;51.090;-115.352;2023-03-01T10:53:03;5.40;;;2.50;;
76393;SDS011;65216;51.090;-115.352;2023-03-01T10:55:40;4.90;;;2.30;;
76393;SDS011;65216;51.090;-115.352;2023-03-01T10:58:21;4.90;;;2.60;;
76393;SDS011;65216;51.090;-115.352;2023-03-01T11:01:01;4.90;;;2.60;;
76393;SDS011;65216;51.090;-115.352;2023-03-01T11:03:37;6.00;;;2.80;;
76393;SDS011;65216;51.090;-115.352;2023-03-01T11:08:49;6.00;;;2.70;;
76393;SDS011;65216;51.090;-115.352;2023-03-01T11:11:29;4.60;;;2.70;;
76393;SDS011;65216;51.090;-115.352;2023-03-01T11:14:25;5.00;;;2.50;;
76393;SDS011;65216;51.090;-115.352;2023-03-01T11:23:09;4.50;;;2.50;;
76393;SDS011;65216;51.090;-115.352;2023-03-01T11:25:52;3.90;;;2.30;;
76393;SDS011;65216;51.090;-115.352;2023-03-01T11:28:29;5.10;;;2.30;;
76393;SDS011;65216;51.090;-115.352;2023-03-01T11:36:56;5.30;;;2.60;;
76393;SDS011;65216;51.090;-115.352;2023-03-01T11:39:33;4.20;;;2.20;;
76393;SDS011;65216;51.090;-115.352;2023-03-01T11:42:19;3.80;;;2.30;;
76393;SDS011;65216;51.090;-115.352;2023-03-01T11:44:55;4.50;;;2.50;;
76393;SDS011;65216;51.090;-115.352;2023-03-01T11:50:50;4.90;;;2.50;;
76393;SDS011;65216;51.090;-115.352;2023-03-01T12:04:53;4.90;;;2.50;;
76393;SDS011;65216;51.090;-115.352;2023-03-01T12:10:48;4.40;;;2.20;;
76393;SDS011;65216;51.090;-115.352;2023-03-01T12:17:20;4.10;;;2.30;;
76393;SDS011;65216;51.090;-115.352;2023-03-01T12:40:53;4.00;;;2.20;;
76393;SDS011;65216;51.090;-115.352;2023-03-01T12:46:41;4.70;;;2.30;;
76393;SDS011;65216;51.090;-115.352;2023-03-01T12:49:40;4.10;;;2.10;;
76393;SDS011;65216;51.090;-115.352;2023-03-01T12:52:22;4.30;;;2.10;;
76393;SDS011;65216;51.090;-115.352;2023-03-01T13:10:34;3.90;;;2.10;;
76393;SDS011;65216;51.090;-115.352;2023-03-01T13:19:29;4.50;;;1.90;;
76393;SDS011;65216;51.090;-115.352;2023-03-01T13:22:28;4.10;;;2.20;;
76393;SDS011;65216;51.090;-115.352;2023-03-01T13:25:20;3.70;;;2.10;;
76393;SDS011;65216;51.090;-115.352;2023-03-01T13:33:59;3.90;;;2.10;;
76393;SDS011;65216;51.090;-115.352;2023-03-01T13:42:01;4.60;;;2.10;;
76393;SDS011;65216;51.090;-115.352;2023-03-01T13:44:35;4.30;;;2.20;;
76393;SDS011;65216;51.090;-115.352;2023-03-01T13:47:16;4.10;;;1.70;;
76393;SDS011;65216;51.090;-115.352;2023-03-01T13:53:10;4.20;;;2.00;;
76393;SDS011;65216;51.090;-115.352;2023-03-01T13:56:07;4.00;;;1.90;;
76393;SDS011;65216;51.090;-115.352;2023-03-01T13:59:04;4.00;;;2.00;;
76393;SDS011;65216;51.090;-115.352;2023-03-01T14:01:42;5.00;;;2.10;;
76393;SDS011;65216;51.090;-115.352;2023-03-01T14:04:30;4.40;;;2.10;;
76393;SDS011;65216;51.090;-115.352;2023-03-01T14:07:20;3.70;;;2.00;;
76393;SDS011;65216;51.090;-115.352;2023-03-01T14:10:11;4.20;;;2.00;;
76393;SDS011;65216;51.090;-115.352;2023-03-01T14:16:18;3.30;;;1.80;;
76393;SDS011;65216;51.090;-115.352;2023-03-01T14:19:25;6.80;;;1.80;;
76393;SDS011;65216;51.090;-115.352;2023-03-01T14:22:05;5.00;;;2.10;;
76393;SDS011;65216;51.090;-115.352;2023-03-01T14:25:34;3.70;;;2.00;;
76393;SDS011;65216;51.090;-115.352;2023-03-01T14:28:23;3.30;;;1.70;;
76393;SDS011;65216;51.090;-115.352;2023-03-01T14:31:02;4.50;;;2.10;;
76393;SDS011;65216;51.090;-115.352;2023-03-01T14:33:35;4.50;;;1.90;;
76393;SDS011;65216;51.090;-115.352;2023-03-01T14:36:11;5.60;;;1.90;;
76393;SDS011;65216;51.090;-115.352;2023-03-01T14:38:47;4.60;;;2.10;;
76393;SDS011;65216;51.090;-115.352;2023-03-01T14:41:35;4.80;;;2.00;;
76393;SDS011;65216;51.090;-115.352;2023-03-01T14:44:11;4.70;;;2.10;;
76393;SDS011;65216;51.090;-115.352;2023-03-01T14:46:46;3.80;;;1.90;;
76393;SDS011;65216;51.090;-115.352;2023-03-01T14:49:19;4.50;;;1.90;;
76393;SDS011;65216;51.090;-115.352;2023-03-01T14:52:14;3.60;;;1.70;;
76393;SDS011;65216;51.090;-115.352;2023-03-01T14:54:52;4.80;;;2.10;;
76393;SDS011;65216;51.090;-115.352;2023-03-01T14:57:26;4.10;;;2.00;;
76393;SDS011;65216;51.090;-115.352;2023-03-01T15:02:33;4.80;;;1.90;;
76393;SDS011;65216;51.090;-115.352;2023-03-01T15:05:06;4.50;;;2.20;;
76393;SDS011;65216;51.090;-115.352;2023-03-01T15:07:40;3.70;;;1.90;;
76393;SDS011;65216;51.090;-115.352;2023-03-01T15:10:34;5.30;;;2.20;;
76393;SDS011;65216;51.090;-115.352;2023-03-01T15:15:47;4.10;;;2.10;;
76393;SDS011;65216;51.090;-115.352;2023-03-01T15:18:31;5.90;;;2.00;;
76393;SDS011;65216;51.090;-115.352;2023-03-01T15:21:25;4.70;;;2.00;;
76393;SDS011;65216;51.090;-115.352;2023-03-01T15:24:16;4.50;;;2.10;;
76393;SDS011;65216;51.090;-115.352;2023-03-01T15:26:54;4.00;;;1.60;;
76393;SDS011;65216;51.090;-115.352;2023-03-01T15:29:29;5.70;;;2.00;;
76393;SDS011;65216;51.090;-115.352;2023-03-01T15:32:01;4.40;;;2.10;;
76393;SDS011;65216;51.090;-115.352;2023-03-01T15:34:34;4.60;;;2.00;;
76393;SDS011;65216;51.090;-115.352;2023-03-01T15:37:39;4.10;;;2.00;;
76393;SDS011;65216;51.090;-115.352;2023-03-01T15:40:31;7.90;;;2.10;;
76393;SDS011;65216;51.090;-115.352;2023-03-01T15:45:32;3.30;;;1.70;;
76393;SDS011;65216;51.090;-115.352;2023-03-01T15:48:13;6.10;;;1.70;;
76393;SDS011;65216;51.090;-115.352;2023-03-01T15:50:55;5.70;;;1.90;;
76393;SDS011;65216;51.090;-115.352;2023-03-01T15:53:27;7.70;;;2.10;;
76393;SDS011;65216;51.090;-115.352;2023-03-01T15:55:58;5.50;;;2.50;;
76393;SDS011;65216;51.090;-115.352;2023-03-01T15:58:38;6.00;;;1.90;;
76393;SDS011;65216;51.090;-115.352;2023-03-01T16:01:19;5.30;;;2.10;;
76393;SDS011;65216;51.090;-115.352;2023-03-01T16:03:47;8.90;;;2.00;;
76393;SDS011;65216;51.090;-115.352;2023-03-01T16:06:17;8.60;;;1.90;;
76393;SDS011;65216;51.090;-115.352;2023-03-01T16:08:50;5.40;;;1.90;;
76393;SDS011;65216;51.090;-115.352;2023-03-01T16:11:23;6.40;;;2.10;;
76393;SDS011;65216;51.090;-115.352;2023-03-01T16:13:52;4.60;;;1.90;;
76393;SDS011;65216;51.090;-115.352;2023-03-01T16:16:22;6.00;;;2.00;;
76393;SDS011;65216;51.090;-115.352;2023-03-01T16:18:52;4.50;;;2.20;;
76393;SDS011;65216;51.090;-115.352;2023-03-01T16:21:31;6.50;;;2.10;;
76393;SDS011;65216;51.090;-115.352;2023-03-01T16:24:04;7.00;;;1.80;;
76393;SDS011;65216;51.090;-115.352;2023-03-01T16:26:36;5.80;;;1.80;;
76393;SDS011;65216;51.090;-115.352;2023-03-01T16:29:07;6.60;;;1.90;;
76393;SDS011;65216;51.090;-115.352;2023-03-01T16:31:40;4.50;;;2.10;;
76393;SDS011;65216;51.090;-115.352;2023-03-01T16:34:08;7.60;;;1.80;;
76393;SDS011;65216;51.090;-115.352;2023-03-01T16:36:37;6.60;;;2.30;;
76393;SDS011;65216;51.090;-115.352;2023-03-01T16:39:05;4.20;;;1.60;;
76393;SDS011;65216;51.090;-115.352;2023-03-01T16:41:35;6.00;;;1.80;;
76393;SDS011;65216;51.090;-115.352;2023-03-01T16:44:03;7.60;;;2.00;;
76393;SDS011;65216;51.090;-115.352;2023-03-01T16:46:33;7.80;;;2.00;;
76393;SDS011;65216;51.090;-115.352;2023-03-01T16:49:05;5.90;;;2.00;;
76393;SDS011;65216;51.090;-115.352;2023-03-01T16:51:37;5.00;;;2.10;;
76393;SDS011;65216;51.090;-115.352;2023-03-01T16:54:08;4.30;;;1.70;;
76393;SDS011;65216;51.090;-115.352;2023-03-01T16:56:37;4.80;;;1.90;;
76393;SDS011;65216;51.090;-115.352;2023-03-01T16:59:08;6.10;;;1.70;;
76393;SDS011;65216;51.090;-115.352;2023-03-01T17:01:36;8.60;;;1.90;;
76393;SDS011;65216;51.090;-115.352;2023-03-01T17:04:05;7.80;;;1.90;;
76393;SDS011;65216;51.090;-115.352;2023-03-01T17:06:35;5.40;;;1.80;;